Terminal Aerodrome Forecast
Issued by NWS

Home | Current Version | Previous Version | Text Only | Print | Product List | Glossary On
Versions: 1 2 3 4 5 6 7 8 9 10 11 12 13 14 15
000
FTUS45 KABQ 292340
TAFAEG
TAF
KAEG 292340Z 3000/3024 11007KT P6SM VCSH SCT080 BKN140
      TEMPO 3000/3002 VRB14G26KT SCT080 BKN120
     FM300230 13005KT P6SM SCT100 SCT150
     FM300700 VRB04KT P6SM FEW140
     FM301930 23008KT P6SM SCT090=

USA.gov is the U.S. government's official web portal to all federal, state and local government web resources and services.